Airfield :
LOGIN :

Register | Disclaimer

   EN    FR    IT 

 










Legend :    VFR   Marginal VFR   IFR   Intensive IFR   Very Intensive IFR
Visi :
Ceiling :
>= 8 km
>= 3000ft
5 to 8 km
1000 to 3000 ft
1500m to 5 km
500 to 1000 ft
800 to 1500m
200 to 500 ft
< 800m
< 200 ft
Symbols :   Thunderstorms  Fog  Heavy snow  Heavy precipitations  Wind > 20 kt
SIGMETs :     Misc.  Thunderstorms  Icing  Turbulence  Mountain Waves  Volcanic Ashes







- Airport Elevation : 939 ft


LKKB - Kbely Air Base

CURRENT METAR :
  • 131300Z 18013KT 9999 FEW033 SCT230 04/M05 Q1012 NOSIG

EXPIRED METARs :
  • 131200Z 18012KT 9999 FEW030 BKN230 03/M05 Q1014 NOSIG
  • 131100Z 19010KT 9999 FEW026 BKN230 03/M04 Q1015 NOSIG
  • 131000Z 18009KT CAVOK 02/M03 Q1016 NOSIG

TAF TAF LKKB
Valid from the 13 at 12:00 until the 14 at 12:00 UTC


131100Z 1312/1412 21010KT CAVOK
BECMG 1320/1322 9999 BKN030
TEMPO 1321/1412 22014G24KT
TEMPO 1400/1412 6000 RASN BKN015
No reported NOTAMs for that airfield.



MET'MAP, your aeronautical weather chart ! - Copyright ORBIFLY December 2007 - Disclaimer

ORBIFLY MET'MAP TEAM :

Programming & Development : Alexandra Zaïnal
Concept & Development : Baudouin d'Aumeries
Co-Development & Prog : Marc-Olivier Méhu
Technical & hardware support : Manuel Goepfert

Contact : metmap@orbifly.com




SOURCES & CREDITS :

   NOAA